sensor_id;sensor_type;location;lat;lon;timestamp;P1;durP1;ratioP1;P2;durP2;ratioP2
13173;SDS011;6652;48.802;9.190;2023-07-24T00:00:31;18.55;;;10.35;;
13173;SDS011;6652;48.802;9.190;2023-07-24T00:03:00;22.88;;;10.45;;
13173;SDS011;6652;48.802;9.190;2023-07-24T00:05:28;19.23;;;10.48;;
13173;SDS011;6652;48.802;9.190;2023-07-24T00:07:55;20.60;;;10.68;;
13173;SDS011;6652;48.802;9.190;2023-07-24T00:10:22;19.25;;;10.45;;
13173;SDS011;6652;48.802;9.190;2023-07-24T00:12:49;17.20;;;10.18;;
13173;SDS011;6652;48.802;9.190;2023-07-24T00:15:15;18.85;;;10.57;;
13173;SDS011;6652;48.802;9.190;2023-07-24T00:17:43;15.98;;;9.68;;
13173;SDS011;6652;48.802;9.190;2023-07-24T00:20:09;17.77;;;9.80;;
13173;SDS011;6652;48.802;9.190;2023-07-24T00:22:38;19.40;;;10.38;;
13173;SDS011;6652;48.802;9.190;2023-07-24T00:25:05;24.10;;;9.90;;
13173;SDS011;6652;48.802;9.190;2023-07-24T00:27:34;19.08;;;9.68;;
13173;SDS011;6652;48.802;9.190;2023-07-24T00:30:01;15.98;;;9.70;;
13173;SDS011;6652;48.802;9.190;2023-07-24T00:32:27;19.00;;;9.68;;
13173;SDS011;6652;48.802;9.190;2023-07-24T00:34:54;19.40;;;9.60;;
13173;SDS011;6652;48.802;9.190;2023-07-24T00:37:21;18.30;;;9.95;;
13173;SDS011;6652;48.802;9.190;2023-07-24T00:39:49;17.35;;;10.55;;
13173;SDS011;6652;48.802;9.190;2023-07-24T00:42:16;21.00;;;10.93;;
13173;SDS011;6652;48.802;9.190;2023-07-24T00:44:42;18.48;;;10.63;;
13173;SDS011;6652;48.802;9.190;2023-07-24T00:47:09;24.92;;;11.25;;
13173;SDS011;6652;48.802;9.190;2023-07-24T00:49:36;16.17;;;9.80;;
13173;SDS011;6652;48.802;9.190;2023-07-24T00:52:03;19.13;;;9.93;;
13173;SDS011;6652;48.802;9.190;2023-07-24T00:54:31;19.88;;;10.00;;
13173;SDS011;6652;48.802;9.190;2023-07-24T00:57:01;18.63;;;10.10;;
13173;SDS011;6652;48.802;9.190;2023-07-24T00:59:29;19.90;;;10.73;;
13173;SDS011;6652;48.802;9.190;2023-07-24T01:01:56;18.73;;;10.57;;
13173;SDS011;6652;48.802;9.190;2023-07-24T01:04:23;18.23;;;11.10;;
13173;SDS011;6652;48.802;9.190;2023-07-24T01:06:50;24.98;;;10.65;;
13173;SDS011;6652;48.802;9.190;2023-07-24T01:09:17;19.92;;;11.15;;
13173;SDS011;6652;48.802;9.190;2023-07-24T01:11:45;17.73;;;10.98;;
13173;SDS011;6652;48.802;9.190;2023-07-24T01:14:16;16.77;;;9.77;;
13173;SDS011;6652;48.802;9.190;2023-07-24T01:16:48;20.27;;;10.55;;
13173;SDS011;6652;48.802;9.190;2023-07-24T01:19:16;15.07;;;10.07;;
13173;SDS011;6652;48.802;9.190;2023-07-24T01:21:58;15.00;;;9.73;;
13173;SDS011;6652;48.802;9.190;2023-07-24T01:24:30;17.05;;;9.65;;
13173;SDS011;6652;48.802;9.190;2023-07-24T01:27:04;18.58;;;10.10;;
13173;SDS011;6652;48.802;9.190;2023-07-24T01:29:33;18.35;;;10.35;;
13173;SDS011;6652;48.802;9.190;2023-07-24T01:31:59;15.68;;;10.38;;
13173;SDS011;6652;48.802;9.190;2023-07-24T01:34:26;17.17;;;9.93;;
13173;SDS011;6652;48.802;9.190;2023-07-24T01:36:53;14.30;;;9.45;;
13173;SDS011;6652;48.802;9.190;2023-07-24T01:39:20;16.83;;;9.48;;
13173;SDS011;6652;48.802;9.190;2023-07-24T01:41:47;15.88;;;9.98;;
13173;SDS011;6652;48.802;9.190;2023-07-24T01:44:15;17.25;;;10.23;;
13173;SDS011;6652;48.802;9.190;2023-07-24T01:46:42;16.35;;;10.98;;
13173;SDS011;6652;48.802;9.190;2023-07-24T01:49:10;17.60;;;10.05;;
13173;SDS011;6652;48.802;9.190;2023-07-24T01:51:36;16.65;;;10.07;;
13173;SDS011;6652;48.802;9.190;2023-07-24T01:54:03;15.90;;;10.23;;
13173;SDS011;6652;48.802;9.190;2023-07-24T01:56:30;15.80;;;9.57;;
13173;SDS011;6652;48.802;9.190;2023-07-24T01:58:57;14.90;;;9.70;;
13173;SDS011;6652;48.802;9.190;2023-07-24T02:01:25;21.98;;;9.95;;
13173;SDS011;6652;48.802;9.190;2023-07-24T02:03:51;17.33;;;10.18;;
13173;SDS011;6652;48.802;9.190;2023-07-24T02:06:18;19.52;;;10.80;;
13173;SDS011;6652;48.802;9.190;2023-07-24T02:08:45;14.55;;;9.55;;
13173;SDS011;6652;48.802;9.190;2023-07-24T02:11:14;18.70;;;10.18;;
13173;SDS011;6652;48.802;9.190;2023-07-24T02:13:43;19.33;;;10.00;;
13173;SDS011;6652;48.802;9.190;2023-07-24T02:16:10;16.30;;;9.95;;
13173;SDS011;6652;48.802;9.190;2023-07-24T02:18:40;15.57;;;10.05;;
13173;SDS011;6652;48.802;9.190;2023-07-24T02:21:08;17.65;;;10.13;;
13173;SDS011;6652;48.802;9.190;2023-07-24T02:23:35;15.95;;;9.90;;
13173;SDS011;6652;48.802;9.190;2023-07-24T02:26:02;16.60;;;9.50;;
13173;SDS011;6652;48.802;9.190;2023-07-24T02:28:28;15.20;;;9.55;;
13173;SDS011;6652;48.802;9.190;2023-07-24T02:30:55;14.50;;;9.82;;
13173;SDS011;6652;48.802;9.190;2023-07-24T02:33:22;18.27;;;10.23;;
13173;SDS011;6652;48.802;9.190;2023-07-24T02:35:52;14.32;;;9.13;;
13173;SDS011;6652;48.802;9.190;2023-07-24T02:38:19;16.65;;;9.45;;
13173;SDS011;6652;48.802;9.190;2023-07-24T02:40:46;16.88;;;9.82;;
13173;SDS011;6652;48.802;9.190;2023-07-24T02:43:13;15.20;;;9.35;;
13173;SDS011;6652;48.802;9.190;2023-07-24T02:45:40;16.95;;;9.73;;
13173;SDS011;6652;48.802;9.190;2023-07-24T02:48:07;18.50;;;9.85;;
13173;SDS011;6652;48.802;9.190;2023-07-24T02:50:33;18.10;;;9.60;;
13173;SDS011;6652;48.802;9.190;2023-07-24T02:53:02;14.57;;;10.10;;
13173;SDS011;6652;48.802;9.190;2023-07-24T02:55:29;18.08;;;9.70;;
13173;SDS011;6652;48.802;9.190;2023-07-24T02:57:56;17.58;;;10.18;;
13173;SDS011;6652;48.802;9.190;2023-07-24T03:00:23;20.15;;;10.48;;
13173;SDS011;6652;48.802;9.190;2023-07-24T03:02:50;22.98;;;9.38;;
13173;SDS011;6652;48.802;9.190;2023-07-24T03:05:16;17.85;;;9.55;;
13173;SDS011;6652;48.802;9.190;2023-07-24T03:07:43;19.45;;;9.98;;
13173;SDS011;6652;48.802;9.190;2023-07-24T03:10:11;18.90;;;10.55;;
13173;SDS011;6652;48.802;9.190;2023-07-24T03:12:38;20.95;;;10.60;;
13173;SDS011;6652;48.802;9.190;2023-07-24T03:15:05;21.55;;;10.90;;
13173;SDS011;6652;48.802;9.190;2023-07-24T03:17:33;16.08;;;9.90;;
13173;SDS011;6652;48.802;9.190;2023-07-24T03:20:07;16.63;;;9.35;;
13173;SDS011;6652;48.802;9.190;2023-07-24T03:22:34;15.70;;;9.73;;
13173;SDS011;6652;48.802;9.190;2023-07-24T03:25:01;15.18;;;9.98;;
13173;SDS011;6652;48.802;9.190;2023-07-24T03:27:29;13.52;;;9.93;;
13173;SDS011;6652;48.802;9.190;2023-07-24T03:29:56;20.35;;;10.73;;
13173;SDS011;6652;48.802;9.190;2023-07-24T03:32:23;17.08;;;10.18;;
13173;SDS011;6652;48.802;9.190;2023-07-24T03:34:49;15.70;;;9.75;;
13173;SDS011;6652;48.802;9.190;2023-07-24T03:37:16;16.58;;;9.65;;
13173;SDS011;6652;48.802;9.190;2023-07-24T03:39:43;15.77;;;10.70;;
13173;SDS011;6652;48.802;9.190;2023-07-24T03:42:10;19.10;;;10.90;;
13173;SDS011;6652;48.802;9.190;2023-07-24T03:44:39;17.38;;;10.27;;
13173;SDS011;6652;48.802;9.190;2023-07-24T03:47:06;16.95;;;10.63;;
13173;SDS011;6652;48.802;9.190;2023-07-24T03:49:33;27.83;;;10.93;;
13173;SDS011;6652;48.802;9.190;2023-07-24T03:52:00;18.52;;;10.77;;
13173;SDS011;6652;48.802;9.190;2023-07-24T03:54:27;28.95;;;15.15;;
13173;SDS011;6652;48.802;9.190;2023-07-24T03:56:53;29.55;;;16.23;;
13173;SDS011;6652;48.802;9.190;2023-07-24T03:59:20;21.98;;;9.77;;
13173;SDS011;6652;48.802;9.190;2023-07-24T04:01:48;22.02;;;10.95;;
13173;SDS011;6652;48.802;9.190;2023-07-24T04:04:15;25.23;;;12.38;;
13173;SDS011;6652;48.802;9.190;2023-07-24T04:06:42;25.02;;;14.00;;
13173;SDS011;6652;48.802;9.190;2023-07-24T04:09:09;18.98;;;10.10;;
13173;SDS011;6652;48.802;9.190;2023-07-24T04:11:39;31.15;;;14.93;;
13173;SDS011;6652;48.802;9.190;2023-07-24T04:14:06;26.80;;;12.55;;
13173;SDS011;6652;48.802;9.190;2023-07-24T04:16:33;30.38;;;14.60;;
13173;SDS011;6652;48.802;9.190;2023-07-24T04:19:01;18.58;;;10.60;;
13173;SDS011;6652;48.802;9.190;2023-07-24T04:21:28;27.95;;;13.77;;
13173;SDS011;6652;48.802;9.190;2023-07-24T04:23:55;18.75;;;9.85;;
13173;SDS011;6652;48.802;9.190;2023-07-24T04:26:22;18.92;;;9.82;;
13173;SDS011;6652;48.802;9.190;2023-07-24T04:28:48;15.65;;;9.45;;
13173;SDS011;6652;48.802;9.190;2023-07-24T04:31:15;18.50;;;10.23;;
13173;SDS011;6652;48.802;9.190;2023-07-24T04:33:42;17.67;;;9.77;;
13173;SDS011;6652;48.802;9.190;2023-07-24T04:36:10;19.58;;;10.18;;
13173;SDS011;6652;48.802;9.190;2023-07-24T04:38:37;20.90;;;11.35;;
13173;SDS011;6652;48.802;9.190;2023-07-24T04:41:04;20.80;;;11.05;;
13173;SDS011;6652;48.802;9.190;2023-07-24T04:43:30;18.63;;;11.23;;
13173;SDS011;6652;48.802;9.190;2023-07-24T04:45:57;23.27;;;10.63;;
13173;SDS011;6652;48.802;9.190;2023-07-24T04:48:24;22.45;;;12.35;;
13173;SDS011;6652;48.802;9.190;2023-07-24T04:50:52;21.42;;;10.95;;
13173;SDS011;6652;48.802;9.190;2023-07-24T04:53:21;23.05;;;10.57;;
13173;SDS011;6652;48.802;9.190;2023-07-24T04:55:48;20.67;;;10.75;;
13173;SDS011;6652;48.802;9.190;2023-07-24T04:58:15;18.67;;;10.95;;
13173;SDS011;6652;48.802;9.190;2023-07-24T05:00:41;28.17;;;11.80;;
13173;SDS011;6652;48.802;9.190;2023-07-24T05:03:09;20.30;;;10.88;;
13173;SDS011;6652;48.802;9.190;2023-07-24T05:05:36;20.98;;;10.95;;
13173;SDS011;6652;48.802;9.190;2023-07-24T05:08:03;18.45;;;11.38;;
13173;SDS011;6652;48.802;9.190;2023-07-24T05:10:35;21.20;;;11.05;;
13173;SDS011;6652;48.802;9.190;2023-07-24T05:13:02;23.52;;;12.00;;
13173;SDS011;6652;48.802;9.190;2023-07-24T05:15:29;18.50;;;10.35;;
13173;SDS011;6652;48.802;9.190;2023-07-24T05:17:56;36.25;;;12.38;;
13173;SDS011;6652;48.802;9.190;2023-07-24T05:20:23;20.65;;;11.30;;
13173;SDS011;6652;48.802;9.190;2023-07-24T05:22:49;28.30;;;11.80;;
13173;SDS011;6652;48.802;9.190;2023-07-24T05:25:16;22.52;;;11.93;;
13173;SDS011;6652;48.802;9.190;2023-07-24T05:27:44;22.00;;;11.43;;
13173;SDS011;6652;48.802;9.190;2023-07-24T05:30:11;22.95;;;11.35;;
13173;SDS011;6652;48.802;9.190;2023-07-24T05:32:38;22.40;;;11.32;;
13173;SDS011;6652;48.802;9.190;2023-07-24T05:35:05;20.05;;;10.63;;
13173;SDS011;6652;48.802;9.190;2023-07-24T05:37:32;21.77;;;11.70;;
13173;SDS011;6652;48.802;9.190;2023-07-24T05:39:59;22.20;;;10.85;;
13173;SDS011;6652;48.802;9.190;2023-07-24T05:42:26;24.88;;;11.20;;
13173;SDS011;6652;48.802;9.190;2023-07-24T05:44:54;23.88;;;11.75;;
13173;SDS011;6652;48.802;9.190;2023-07-24T05:47:21;24.67;;;10.65;;
13173;SDS011;6652;48.802;9.190;2023-07-24T05:49:48;22.65;;;12.20;;
13173;SDS011;6652;48.802;9.190;2023-07-24T05:52:14;22.02;;;11.57;;
13173;SDS011;6652;48.802;9.190;2023-07-24T05:54:41;21.10;;;11.18;;
13173;SDS011;6652;48.802;9.190;2023-07-24T05:57:08;22.90;;;11.02;;
13173;SDS011;6652;48.802;9.190;2023-07-24T05:59:35;22.58;;;11.88;;
13173;SDS011;6652;48.802;9.190;2023-07-24T06:02:03;19.13;;;11.10;;
13173;SDS011;6652;48.802;9.190;2023-07-24T06:04:30;19.70;;;10.43;;
13173;SDS011;6652;48.802;9.190;2023-07-24T06:06:57;20.40;;;10.85;;
13173;SDS011;6652;48.802;9.190;2023-07-24T06:09:24;17.58;;;9.77;;
13173;SDS011;6652;48.802;9.190;2023-07-24T06:11:50;19.48;;;10.10;;
13173;SDS011;6652;48.802;9.190;2023-07-24T06:14:17;15.93;;;9.63;;
13173;SDS011;6652;48.802;9.190;2023-07-24T06:16:44;20.45;;;9.80;;
13173;SDS011;6652;48.802;9.190;2023-07-24T06:19:12;20.70;;;10.02;;
13173;SDS011;6652;48.802;9.190;2023-07-24T06:21:39;20.38;;;10.50;;
13173;SDS011;6652;48.802;9.190;2023-07-24T06:24:06;21.45;;;9.70;;
13173;SDS011;6652;48.802;9.190;2023-07-24T06:26:36;27.00;;;10.38;;
13173;SDS011;6652;48.802;9.190;2023-07-24T06:29:03;18.23;;;9.75;;
13173;SDS011;6652;48.802;9.190;2023-07-24T06:31:30;19.13;;;9.82;;
13173;SDS011;6652;48.802;9.190;2023-07-24T06:33:57;26.08;;;11.48;;
13173;SDS011;6652;48.802;9.190;2023-07-24T06:36:25;29.50;;;11.80;;
13173;SDS011;6652;48.802;9.190;2023-07-24T06:38:52;26.52;;;12.57;;
13173;SDS011;6652;48.802;9.190;2023-07-24T06:41:19;20.30;;;10.82;;
13173;SDS011;6652;48.802;9.190;2023-07-24T06:43:47;24.80;;;11.57;;
13173;SDS011;6652;48.802;9.190;2023-07-24T06:46:14;18.17;;;10.50;;
13173;SDS011;6652;48.802;9.190;2023-07-24T06:48:41;20.40;;;9.85;;
13173;SDS011;6652;48.802;9.190;2023-07-24T06:51:08;17.23;;;10.05;;
13173;SDS011;6652;48.802;9.190;2023-07-24T06:53:36;19.40;;;10.10;;
13173;SDS011;6652;48.802;9.190;2023-07-24T06:56:03;20.23;;;10.10;;
13173;SDS011;6652;48.802;9.190;2023-07-24T06:58:33;16.13;;;9.90;;
13173;SDS011;6652;48.802;9.190;2023-07-24T07:01:04;18.23;;;9.30;;
13173;SDS011;6652;48.802;9.190;2023-07-24T07:03:31;20.83;;;9.75;;
13173;SDS011;6652;48.802;9.190;2023-07-24T07:05:59;18.65;;;10.07;;
13173;SDS011;6652;48.802;9.190;2023-07-24T07:08:27;21.25;;;9.43;;
13173;SDS011;6652;48.802;9.190;2023-07-24T07:10:56;18.90;;;10.60;;
13173;SDS011;6652;48.802;9.190;2023-07-24T07:13:23;16.27;;;9.45;;
13173;SDS011;6652;48.802;9.190;2023-07-24T07:15:50;15.80;;;9.57;;
13173;SDS011;6652;48.802;9.190;2023-07-24T07:18:17;19.80;;;9.48;;
13173;SDS011;6652;48.802;9.190;2023-07-24T07:20:47;15.18;;;9.68;;
13173;SDS011;6652;48.802;9.190;2023-07-24T07:23:15;17.13;;;9.55;;
13173;SDS011;6652;48.802;9.190;2023-07-24T07:25:42;15.90;;;8.85;;
13173;SDS011;6652;48.802;9.190;2023-07-24T07:28:11;20.88;;;9.32;;
13173;SDS011;6652;48.802;9.190;2023-07-24T07:30:38;21.92;;;10.30;;
13173;SDS011;6652;48.802;9.190;2023-07-24T07:33:05;17.65;;;9.82;;
13173;SDS011;6652;48.802;9.190;2023-07-24T07:35:32;20.00;;;9.95;;
13173;SDS011;6652;48.802;9.190;2023-07-24T07:38:00;18.98;;;9.43;;
13173;SDS011;6652;48.802;9.190;2023-07-24T07:40:27;19.95;;;9.82;;
13173;SDS011;6652;48.802;9.190;2023-07-24T07:42:54;22.83;;;10.25;;
13173;SDS011;6652;48.802;9.190;2023-07-24T07:45:23;22.17;;;10.20;;
13173;SDS011;6652;48.802;9.190;2023-07-24T07:47:50;13.90;;;9.05;;
13173;SDS011;6652;48.802;9.190;2023-07-24T07:50:18;16.38;;;9.75;;
13173;SDS011;6652;48.802;9.190;2023-07-24T07:52:45;17.75;;;10.07;;
13173;SDS011;6652;48.802;9.190;2023-07-24T07:55:12;19.95;;;9.02;;
13173;SDS011;6652;48.802;9.190;2023-07-24T07:57:38;20.30;;;11.45;;
13173;SDS011;6652;48.802;9.190;2023-07-24T08:00:06;18.45;;;10.15;;
13173;SDS011;6652;48.802;9.190;2023-07-24T08:02:34;20.58;;;9.82;;
13173;SDS011;6652;48.802;9.190;2023-07-24T08:05:05;18.95;;;10.45;;
13173;SDS011;6652;48.802;9.190;2023-07-24T08:07:32;19.75;;;9.65;;
13173;SDS011;6652;48.802;9.190;2023-07-24T08:09:59;21.70;;;10.02;;
13173;SDS011;6652;48.802;9.190;2023-07-24T08:12:26;18.85;;;9.75;;
13173;SDS011;6652;48.802;9.190;2023-07-24T08:14:53;18.63;;;9.45;;
13173;SDS011;6652;48.802;9.190;2023-07-24T08:17:20;18.58;;;9.88;;
13173;SDS011;6652;48.802;9.190;2023-07-24T08:19:48;36.72;;;11.80;;
13173;SDS011;6652;48.802;9.190;2023-07-24T08:22:15;31.05;;;10.65;;
13173;SDS011;6652;48.802;9.190;2023-07-24T08:24:41;23.58;;;11.88;;
13173;SDS011;6652;48.802;9.190;2023-07-24T08:27:09;26.42;;;11.93;;
13173;SDS011;6652;48.802;9.190;2023-07-24T08:29:36;26.27;;;10.27;;
13173;SDS011;6652;48.802;9.190;2023-07-24T08:32:03;18.58;;;9.75;;
13173;SDS011;6652;48.802;9.190;2023-07-24T08:34:31;21.13;;;11.15;;
13173;SDS011;6652;48.802;9.190;2023-07-24T08:36:59;23.85;;;10.88;;
13173;SDS011;6652;48.802;9.190;2023-07-24T08:39:26;23.83;;;11.55;;
13173;SDS011;6652;48.802;9.190;2023-07-24T08:41:52;23.30;;;10.77;;
13173;SDS011;6652;48.802;9.190;2023-07-24T08:44:19;24.00;;;11.27;;
13173;SDS011;6652;48.802;9.190;2023-07-24T08:46:49;24.02;;;11.30;;
13173;SDS011;6652;48.802;9.190;2023-07-24T08:49:17;20.48;;;11.25;;
13173;SDS011;6652;48.802;9.190;2023-07-24T08:51:45;18.02;;;11.30;;
13173;SDS011;6652;48.802;9.190;2023-07-24T08:54:14;21.33;;;11.63;;
13173;SDS011;6652;48.802;9.190;2023-07-24T08:56:41;19.80;;;11.75;;
13173;SDS011;6652;48.802;9.190;2023-07-24T08:59:12;16.90;;;10.02;;
13173;SDS011;6652;48.802;9.190;2023-07-24T09:01:39;21.42;;;12.05;;
13173;SDS011;6652;48.802;9.190;2023-07-24T09:04:06;17.52;;;9.63;;
13173;SDS011;6652;48.802;9.190;2023-07-24T09:06:33;18.48;;;10.05;;
13173;SDS011;6652;48.802;9.190;2023-07-24T09:09:00;18.55;;;9.38;;
13173;SDS011;6652;48.802;9.190;2023-07-24T09:11:28;16.23;;;8.77;;
13173;SDS011;6652;48.802;9.190;2023-07-24T09:13:54;16.23;;;8.90;;
13173;SDS011;6652;48.802;9.190;2023-07-24T09:16:22;16.77;;;8.00;;
13173;SDS011;6652;48.802;9.190;2023-07-24T09:18:49;14.88;;;8.10;;
13173;SDS011;6652;48.802;9.190;2023-07-24T09:21:26;16.92;;;8.10;;
13173;SDS011;6652;48.802;9.190;2023-07-24T09:23:53;14.98;;;8.32;;
13173;SDS011;6652;48.802;9.190;2023-07-24T09:26:20;13.20;;;8.30;;
13173;SDS011;6652;48.802;9.190;2023-07-24T09:28:52;12.57;;;8.07;;
13173;SDS011;6652;48.802;9.190;2023-07-24T09:31:20;14.25;;;8.13;;
13173;SDS011;6652;48.802;9.190;2023-07-24T09:33:46;16.50;;;8.10;;
13173;SDS011;6652;48.802;9.190;2023-07-24T09:36:13;15.35;;;8.20;;
13173;SDS011;6652;48.802;9.190;2023-07-24T09:38:40;18.52;;;8.38;;
13173;SDS011;6652;48.802;9.190;2023-07-24T09:41:08;13.63;;;8.15;;
13173;SDS011;6652;48.802;9.190;2023-07-24T09:43:36;14.85;;;7.95;;
13173;SDS011;6652;48.802;9.190;2023-07-24T09:46:05;10.85;;;7.28;;
13173;SDS011;6652;48.802;9.190;2023-07-24T09:48:32;15.40;;;8.38;;
13173;SDS011;6652;48.802;9.190;2023-07-24T09:51:01;17.52;;;7.90;;
13173;SDS011;6652;48.802;9.190;2023-07-24T09:53:31;16.48;;;7.88;;
13173;SDS011;6652;48.802;9.190;2023-07-24T09:56:00;13.85;;;7.88;;
13173;SDS011;6652;48.802;9.190;2023-07-24T09:58:29;14.60;;;7.85;;
13173;SDS011;6652;48.802;9.190;2023-07-24T10:00:58;13.13;;;7.75;;
13173;SDS011;6652;48.802;9.190;2023-07-24T10:03:27;14.80;;;7.72;;
13173;SDS011;6652;48.802;9.190;2023-07-24T10:05:54;12.48;;;7.03;;
13173;SDS011;6652;48.802;9.190;2023-07-24T10:08:22;12.48;;;7.60;;
13173;SDS011;6652;48.802;9.190;2023-07-24T10:10:50;13.02;;;8.32;;
13173;SDS011;6652;48.802;9.190;2023-07-24T10:13:18;14.13;;;7.53;;
13173;SDS011;6652;48.802;9.190;2023-07-24T10:15:47;18.15;;;8.25;;
13173;SDS011;6652;48.802;9.190;2023-07-24T10:18:15;13.23;;;7.10;;
13173;SDS011;6652;48.802;9.190;2023-07-24T10:20:44;10.65;;;7.13;;
13173;SDS011;6652;48.802;9.190;2023-07-24T10:23:17;9.13;;;6.53;;
13173;SDS011;6652;48.802;9.190;2023-07-24T10:25:45;10.05;;;6.75;;
13173;SDS011;6652;48.802;9.190;2023-07-24T10:28:12;13.90;;;7.03;;
13173;SDS011;6652;48.802;9.190;2023-07-24T10:30:42;14.85;;;7.53;;
13173;SDS011;6652;48.802;9.190;2023-07-24T10:33:09;12.60;;;7.15;;
13173;SDS011;6652;48.802;9.190;2023-07-24T10:35:38;13.18;;;7.82;;
13173;SDS011;6652;48.802;9.190;2023-07-24T10:38:06;13.80;;;7.50;;
13173;SDS011;6652;48.802;9.190;2023-07-24T10:40:33;11.77;;;7.70;;
13173;SDS011;6652;48.802;9.190;2023-07-24T10:43:01;13.60;;;7.30;;
13173;SDS011;6652;48.802;9.190;2023-07-24T10:45:38;12.63;;;6.72;;
13173;SDS011;6652;48.802;9.190;2023-07-24T10:48:05;11.45;;;7.45;;
13173;SDS011;6652;48.802;9.190;2023-07-24T10:50:36;13.05;;;7.35;;
13173;SDS011;6652;48.802;9.190;2023-07-24T10:53:04;9.77;;;6.70;;
13173;SDS011;6652;48.802;9.190;2023-07-24T10:55:32;12.15;;;7.20;;
13173;SDS011;6652;48.802;9.190;2023-07-24T10:57:59;14.73;;;7.95;;
13173;SDS011;6652;48.802;9.190;2023-07-24T11:00:25;17.90;;;9.23;;
13173;SDS011;6652;48.802;9.190;2023-07-24T11:02:52;13.30;;;7.53;;
13173;SDS011;6652;48.802;9.190;2023-07-24T11:05:20;14.45;;;8.10;;
13173;SDS011;6652;48.802;9.190;2023-07-24T11:07:47;13.30;;;8.18;;
13173;SDS011;6652;48.802;9.190;2023-07-24T11:10:14;13.77;;;7.93;;
13173;SDS011;6652;48.802;9.190;2023-07-24T11:12:43;13.68;;;8.70;;
13173;SDS011;6652;48.802;9.190;2023-07-24T11:15:10;17.05;;;9.15;;
13173;SDS011;6652;48.802;9.190;2023-07-24T11:17:39;13.90;;;8.48;;
13173;SDS011;6652;48.802;9.190;2023-07-24T11:20:10;16.20;;;8.85;;
13173;SDS011;6652;48.802;9.190;2023-07-24T11:22:38;16.65;;;7.82;;
13173;SDS011;6652;48.802;9.190;2023-07-24T11:25:07;19.88;;;8.68;;
13173;SDS011;6652;48.802;9.190;2023-07-24T11:27:38;14.07;;;8.13;;
13173;SDS011;6652;48.802;9.190;2023-07-24T11:30:08;13.77;;;7.65;;
13173;SDS011;6652;48.802;9.190;2023-07-24T11:32:37;14.63;;;7.50;;
13173;SDS011;6652;48.802;9.190;2023-07-24T11:35:05;14.73;;;7.53;;
13173;SDS011;6652;48.802;9.190;2023-07-24T11:37:34;12.70;;;7.50;;
13173;SDS011;6652;48.802;9.190;2023-07-24T11:40:02;10.98;;;6.85;;
13173;SDS011;6652;48.802;9.190;2023-07-24T11:42:36;16.73;;;7.32;;
13173;SDS011;6652;48.802;9.190;2023-07-24T14:23:10;9.27;;;4.68;;
13173;SDS011;6652;48.802;9.190;2023-07-24T14:25:37;7.25;;;5.22;;
13173;SDS011;6652;48.802;9.190;2023-07-24T14:28:04;7.72;;;5.45;;
13173;SDS011;6652;48.802;9.190;2023-07-24T14:30:31;10.32;;;5.10;;
13173;SDS011;6652;48.802;9.190;2023-07-24T14:32:58;8.05;;;5.22;;
13173;SDS011;6652;48.802;9.190;2023-07-24T14:35:27;6.80;;;4.82;;
13173;SDS011;6652;48.802;9.190;2023-07-24T14:37:54;6.93;;;4.70;;
13173;SDS011;6652;48.802;9.190;2023-07-24T14:40:22;6.55;;;4.47;;
13173;SDS011;6652;48.802;9.190;2023-07-24T14:42:49;7.38;;;4.25;;
13173;SDS011;6652;48.802;9.190;2023-07-24T14:45:16;6.88;;;4.88;;
13173;SDS011;6652;48.802;9.190;2023-07-24T14:47:42;6.80;;;4.90;;
13173;SDS011;6652;48.802;9.190;2023-07-24T14:50:09;6.32;;;4.30;;
13173;SDS011;6652;48.802;9.190;2023-07-24T14:52:36;6.78;;;4.70;;
13173;SDS011;6652;48.802;9.190;2023-07-24T14:55:03;8.50;;;4.47;;
13173;SDS011;6652;48.802;9.190;2023-07-24T14:57:32;6.15;;;4.45;;
13173;SDS011;6652;48.802;9.190;2023-07-24T14:59:59;6.10;;;4.70;;
13173;SDS011;6652;48.802;9.190;2023-07-24T15:02:26;8.82;;;4.90;;
13173;SDS011;6652;48.802;9.190;2023-07-24T15:04:53;6.90;;;4.90;;
13173;SDS011;6652;48.802;9.190;2023-07-24T15:07:20;6.03;;;4.32;;
13173;SDS011;6652;48.802;9.190;2023-07-24T15:09:47;9.75;;;4.78;;
13173;SDS011;6652;48.802;9.190;2023-07-24T15:12:14;7.63;;;4.22;;
13173;SDS011;6652;48.802;9.190;2023-07-24T15:14:42;5.85;;;4.63;;
13173;SDS011;6652;48.802;9.190;2023-07-24T15:17:09;7.28;;;4.55;;
13173;SDS011;6652;48.802;9.190;2023-07-24T15:19:38;6.43;;;4.95;;
13173;SDS011;6652;48.802;9.190;2023-07-24T15:22:05;5.97;;;4.32;;
13173;SDS011;6652;48.802;9.190;2023-07-24T15:24:32;9.57;;;4.63;;
13173;SDS011;6652;48.802;9.190;2023-07-24T15:26:59;6.68;;;4.28;;
13173;SDS011;6652;48.802;9.190;2023-07-24T15:29:27;6.15;;;3.92;;
13173;SDS011;6652;48.802;9.190;2023-07-24T15:31:55;6.25;;;4.30;;
13173;SDS011;6652;48.802;9.190;2023-07-24T15:34:22;8.07;;;4.40;;
13173;SDS011;6652;48.802;9.190;2023-07-24T15:36:48;8.60;;;4.63;;
13173;SDS011;6652;48.802;9.190;2023-07-24T15:39:16;8.35;;;4.03;;
13173;SDS011;6652;48.802;9.190;2023-07-24T15:41:42;5.13;;;4.00;;
13173;SDS011;6652;48.802;9.190;2023-07-24T15:44:09;7.35;;;4.53;;
13173;SDS011;6652;48.802;9.190;2023-07-24T15:46:36;7.72;;;4.35;;
13173;SDS011;6652;48.802;9.190;2023-07-24T15:49:04;8.57;;;4.47;;
13173;SDS011;6652;48.802;9.190;2023-07-24T15:51:31;7.57;;;4.43;;
13173;SDS011;6652;48.802;9.190;2023-07-24T15:54:14;7.10;;;4.15;;
13173;SDS011;6652;48.802;9.190;2023-07-24T15:56:41;4.85;;;3.67;;
13173;SDS011;6652;48.802;9.190;2023-07-24T15:59:08;8.82;;;4.40;;
13173;SDS011;6652;48.802;9.190;2023-07-24T16:01:35;7.63;;;5.30;;
13173;SDS011;6652;48.802;9.190;2023-07-24T16:04:02;7.85;;;4.10;;
13173;SDS011;6652;48.802;9.190;2023-07-24T16:06:30;5.93;;;3.97;;
13173;SDS011;6652;48.802;9.190;2023-07-24T16:08:57;6.20;;;4.40;;
13173;SDS011;6652;48.802;9.190;2023-07-24T16:11:25;7.10;;;4.28;;
13173;SDS011;6652;48.802;9.190;2023-07-24T16:13:52;4.97;;;4.22;;
13173;SDS011;6652;48.802;9.190;2023-07-24T16:16:19;8.05;;;4.45;;
13173;SDS011;6652;48.802;9.190;2023-07-24T16:18:46;6.40;;;4.68;;
13173;SDS011;6652;48.802;9.190;2023-07-24T16:21:12;7.25;;;4.53;;
13173;SDS011;6652;48.802;9.190;2023-07-24T16:23:41;7.43;;;4.78;;
13173;SDS011;6652;48.802;9.190;2023-07-24T16:26:08;6.20;;;4.03;;
13173;SDS011;6652;48.802;9.190;2023-07-24T16:28:35;9.30;;;4.25;;
13173;SDS011;6652;48.802;9.190;2023-07-24T16:31:02;7.68;;;4.50;;
13173;SDS011;6652;48.802;9.190;2023-07-24T16:33:29;7.32;;;4.70;;
13173;SDS011;6652;48.802;9.190;2023-07-24T16:35:55;8.23;;;4.05;;
13173;SDS011;6652;48.802;9.190;2023-07-24T16:38:24;5.93;;;4.60;;
13173;SDS011;6652;48.802;9.190;2023-07-24T16:40:55;11.00;;;4.88;;
13173;SDS011;6652;48.802;9.190;2023-07-24T16:43:22;7.93;;;4.57;;
13173;SDS011;6652;48.802;9.190;2023-07-24T16:45:49;8.82;;;4.40;;
13173;SDS011;6652;48.802;9.190;2023-07-24T16:48:16;8.77;;;5.10;;
13173;SDS011;6652;48.802;9.190;2023-07-24T16:50:43;8.30;;;4.47;;
13173;SDS011;6652;48.802;9.190;2023-07-24T16:53:10;7.40;;;3.67;;
13173;SDS011;6652;48.802;9.190;2023-07-24T16:55:37;5.75;;;3.40;;
13173;SDS011;6652;48.802;9.190;2023-07-24T16:58:05;16.27;;;4.35;;
13173;SDS011;6652;48.802;9.190;2023-07-24T17:00:32;16.92;;;5.78;;
13173;SDS011;6652;48.802;9.190;2023-07-24T17:02:58;17.17;;;5.65;;
13173;SDS011;6652;48.802;9.190;2023-07-24T17:05:25;10.93;;;4.40;;
13173;SDS011;6652;48.802;9.190;2023-07-24T17:07:54;18.13;;;4.80;;
13173;SDS011;6652;48.802;9.190;2023-07-24T17:10:23;11.32;;;3.70;;
13173;SDS011;6652;48.802;9.190;2023-07-24T17:12:50;7.70;;;3.85;;
13173;SDS011;6652;48.802;9.190;2023-07-24T17:15:18;9.75;;;3.92;;
13173;SDS011;6652;48.802;9.190;2023-07-24T17:17:45;9.27;;;4.28;;
13173;SDS011;6652;48.802;9.190;2023-07-24T17:20:12;8.65;;;3.83;;
13173;SDS011;6652;48.802;9.190;2023-07-24T17:22:39;6.05;;;4.10;;
13173;SDS011;6652;48.802;9.190;2023-07-24T17:25:06;10.07;;;4.47;;